TimeCST,TemperatureF,Dew PointF,Humidity,Sea Level PressureIn,VisibilityMPH,Wind Direction,Wind SpeedMPH,Gust SpeedMPH,PrecipitationIn,Events,Conditions,WindDirDegrees,DateUTC
12:15 AM,53.6,17.6,24,29.84,10.0,SSW,17.3,-,N/A,,Clear,210,2012-12-03 06:15:00
12:35 AM,51.8,17.6,26,29.83,10.0,SSW,16.1,-,N/A,,Clear,200,2012-12-03 06:35:00
12:55 AM,50.0,17.6,28,29.83,10.0,SSW,16.1,-,N/A,,Clear,210,2012-12-03 06:55:00
1:15 AM,53.6,19.4,26,29.83,10.0,SW,17.3,21.9,N/A,,Clear,220,2012-12-03 07:15:00
1:35 AM,53.6,19.4,26,29.81,10.0,SW,20.7,25.3,N/A,,Clear,220,2012-12-03 07:35:00
1:55 AM,53.6,19.4,26,29.80,10.0,SW,23.0,28.8,N/A,,Clear,220,2012-12-03 07:55:00
2:15 AM,53.6,19.4,26,29.80,10.0,SW,19.6,-,N/A,,Clear,220,2012-12-03 08:15:00
2:35 AM,51.8,19.4,28,29.80,10.0,SSW,18.4,-,N/A,,Clear,210,2012-12-03 08:35:00
2:55 AM,50.0,19.4,30,29.80,10.0,SSW,19.6,-,N/A,,Clear,210,2012-12-03 08:55:00
3:15 AM,51.8,19.4,28,29.78,10.0,SSW,19.6,25.3,N/A,,Clear,210,2012-12-03 09:15:00
3:35 AM,50.0,19.4,30,29.78,10.0,SSW,16.1,21.9,N/A,,Clear,200,2012-12-03 09:35:00
3:55 AM,50.0,19.4,30,29.78,10.0,SW,19.6,-,N/A,,Clear,220,2012-12-03 09:55:00
4:15 AM,53.6,19.4,26,29.77,10.0,SW,19.6,25.3,N/A,,Clear,220,2012-12-03 10:15:00
4:35 AM,53.6,19.4,26,29.76,10.0,SW,20.7,26.5,N/A,,Clear,220,2012-12-03 10:35:00
4:55 AM,51.8,17.6,26,29.76,10.0,SW,19.6,25.3,N/A,,Clear,220,2012-12-03 10:55:00
5:15 AM,51.8,17.6,26,29.76,10.0,SW,19.6,24.2,N/A,,Clear,220,2012-12-03 11:15:00
5:35 AM,53.6,17.6,24,29.76,10.0,SW,23.0,-,N/A,,Clear,230,2012-12-03 11:35:00
5:55 AM,55.4,17.6,23,29.76,10.0,WSW,26.5,32.2,N/A,,Clear,240,2012-12-03 11:55:00
6:15 AM,55.4,19.4,25,29.77,10.0,SW,20.7,27.6,N/A,,Clear,230,2012-12-03 12:15:00
6:35 AM,55.4,19.4,25,29.78,10.0,WSW,21.9,-,N/A,,Clear,240,2012-12-03 12:35:00
6:55 AM,55.4,19.4,25,29.78,10.0,WSW,21.9,-,N/A,,Clear,240,2012-12-03 12:55:00
7:15 AM,53.6,17.6,24,29.79,10.0,SW,21.9,26.5,N/A,,Clear,230,2012-12-03 13:15:00
7:35 AM,51.8,19.4,28,29.81,10.0,WSW,16.1,-,N/A,,Clear,240,2012-12-03 13:35:00
7:55 AM,51.8,19.4,28,29.84,10.0,West,12.7,-,N/A,,Clear,260,2012-12-03 13:55:00
8:15 AM,53.6,19.4,26,29.83,10.0,West,18.4,23.0,N/A,,Clear,260,2012-12-03 14:15:00
8:35 AM,55.4,19.4,25,29.85,10.0,West,17.3,23.0,N/A,,Clear,270,2012-12-03 14:35:00
8:55 AM,55.4,19.4,25,29.87,10.0,West,13.8,-,N/A,,Clear,280,2012-12-03 14:55:00
9:15 AM,55.4,19.4,25,29.88,10.0,West,11.5,-,N/A,,Clear,280,2012-12-03 15:15:00
9:35 AM,59.0,19.4,22,29.89,10.0,WNW,13.8,-,N/A,,Clear,290,2012-12-03 15:35:00
10:15 AM,62.6,21.2,20,29.91,10.0,WNW,16.1,24.2,N/A,,Clear,290,2012-12-03 16:15:00
10:35 AM,64.4,21.2,19,29.92,10.0,WNW,17.3,-,N/A,,Clear,300,2012-12-03 16:35:00
10:55 AM,66.2,21.2,18,29.92,10.0,NW,17.3,28.8,N/A,,Clear,320,2012-12-03 16:55:00
11:15 AM,68.0,23.0,18,29.93,10.0,NNW,23.0,28.8,N/A,,Clear,340,2012-12-03 17:15:00
11:35 AM,69.8,26.6,20,29.92,10.0,North,27.6,32.2,N/A,,Clear,360,2012-12-03 17:35:00
11:55 AM,68.0,26.6,21,29.92,10.0,North,26.5,34.5,N/A,,Clear,360,2012-12-03 17:55:00
12:15 PM,68.0,24.8,20,29.92,10.0,North,25.3,31.1,N/A,,Clear,360,2012-12-03 18:15:00
12:35 PM,69.8,24.8,18,29.92,10.0,North,19.6,28.8,N/A,,Clear,10,2012-12-03 18:35:00
1:15 PM,69.8,26.6,20,29.91,10.0,NNE,17.3,23.0,N/A,,Clear,20,2012-12-03 19:15:00
1:35 PM,69.8,26.6,20,29.91,10.0,NNE,19.6,24.2,N/A,,Clear,30,2012-12-03 19:35:00
1:55 PM,68.0,26.6,21,29.92,10.0,North,17.3,26.5,N/A,,Clear,10,2012-12-03 19:55:00
2:15 PM,68.0,28.4,23,29.93,10.0,North,17.3,24.2,N/A,,Clear,10,2012-12-03 20:15:00
2:35 PM,68.0,28.4,23,29.93,10.0,North,17.3,23.0,N/A,,Clear,10,2012-12-03 20:35:00
2:55 PM,68.0,28.4,23,29.93,10.0,NNE,17.3,24.2,N/A,,Clear,30,2012-12-03 20:55:00
3:15 PM,66.2,28.4,24,29.94,10.0,NNE,15.0,18.4,N/A,,Clear,20,2012-12-03 21:15:00
3:35 PM,66.2,28.4,24,29.94,10.0,NNE,19.6,24.2,N/A,,Clear,30,2012-12-03 21:35:00
3:55 PM,64.4,28.4,26,29.96,10.0,NNE,12.7,-,N/A,,Clear,30,2012-12-03 21:55:00
4:15 PM,64.4,30.2,28,29.96,10.0,NE,16.1,-,N/A,,Clear,40,2012-12-03 22:15:00
4:35 PM,62.6,30.2,30,29.97,10.0,NE,10.4,-,N/A,,Clear,50,2012-12-03 22:35:00
4:55 PM,62.6,30.2,30,29.98,10.0,NNE,12.7,18.4,N/A,,Clear,30,2012-12-03 22:55:00
5:15 PM,60.8,30.2,31,30.00,10.0,NNE,12.7,19.6,N/A,,Clear,30,2012-12-03 23:15:00
5:35 PM,59.0,32.0,36,30.01,10.0,NNE,12.7,-,N/A,,Scattered Clouds,30,2012-12-03 23:35:00
5:55 PM,59.0,30.2,34,30.02,10.0,NNE,11.5,-,N/A,,Overcast,20,2012-12-03 23:55:00
6:15 PM,57.2,28.4,33,30.03,10.0,NNE,12.7,19.6,N/A,,Mostly Cloudy,30,2012-12-04 00:15:00
6:35 PM,55.4,28.4,36,30.05,10.0,NNE,11.5,-,N/A,,Mostly Cloudy,30,2012-12-04 00:35:00
6:55 PM,55.4,30.2,38,30.05,10.0,NNE,15.0,-,N/A,,Overcast,30,2012-12-04 00:55:00
7:15 PM,53.6,32.0,44,30.07,10.0,NNE,13.8,-,N/A,,Scattered Clouds,30,2012-12-04 01:15:00
7:35 PM,53.6,32.0,44,30.07,10.0,NNE,12.7,18.4,N/A,,Mostly Cloudy,20,2012-12-04 01:35:00
7:55 PM,53.6,32.0,44,30.09,10.0,NNE,11.5,-,N/A,,Mostly Cloudy,20,2012-12-04 01:55:00
8:15 PM,53.6,32.0,44,30.10,10.0,NNE,12.7,-,N/A,,Scattered Clouds,20,2012-12-04 02:15:00
8:35 PM,51.8,32.0,47,30.11,10.0,NNE,11.5,-,N/A,,Scattered Clouds,20,2012-12-04 02:35:00
8:55 PM,51.8,32.0,47,30.12,10.0,NNE,10.4,-,N/A,,Clear,20,2012-12-04 02:55:00
9:15 PM,50.0,32.0,50,30.12,10.0,NNE,11.5,-,N/A,,Scattered Clouds,20,2012-12-04 03:15:00
9:35 PM,50.0,32.0,50,30.13,10.0,NNE,10.4,-,N/A,,Clear,30,2012-12-04 03:35:00
9:55 PM,48.2,32.0,54,30.14,10.0,NNE,6.9,-,N/A,,Scattered Clouds,20,2012-12-04 03:55:00
10:15 PM,48.2,32.0,54,30.14,10.0,NNE,9.2,-,N/A,,Scattered Clouds,20,2012-12-04 04:15:00
10:35 PM,46.4,32.0,57,30.14,10.0,NNE,10.4,-,N/A,,Clear,30,2012-12-04 04:35:00
10:55 PM,46.4,32.0,57,30.14,10.0,NNE,9.2,-,N/A,,Scattered Clouds,20,2012-12-04 04:55:00
11:15 PM,48.2,32.0,54,30.15,10.0,NNE,11.5,-,N/A,,Mostly Cloudy,30,2012-12-04 05:15:00
11:35 PM,46.4,32.0,57,30.16,10.0,NNE,9.2,-,N/A,,Scattered Clouds,20,2012-12-04 05:35:00
11:55 PM,46.4,32.0,57,30.17,10.0,North,8.1,-,N/A,,Scattered Clouds,10,2012-12-04 05:55:00